Time;durP1;ratioP1;P1;durP2;ratioP2;P2;SDS_P1;SDS_P2;PMS_P1;PMS_P2;Temp;Humidity;BMP_temperature;BMP_pressure;BME280_temperature;BME280_humidity;BME280_pressure;Samples;Min_cycle;Max_cycle;Signal;HPM_P1;HPM_P2
2022/06/05 00:01:43;;;;;;;;;6.25;6.25;;;;;;;;4985848;28;8815;-80
2022/06/05 00:04:19;;;;;;;;;6.50;5.00;;;;;;;;4962066;28;8913;-79
2022/06/05 00:06:51;;;;;;;;;5.00;5.00;;;;;;;;4979491;28;8879;-79
2022/06/05 00:09:27;;;;;;;;;6.25;5.50;;;;;;;;4977374;28;8887;-79
2022/06/05 00:11:58;;;;;;;;;6.00;6.00;;;;;;;;4970613;28;9680;-79
2022/06/05 00:14:25;;;;;;;;;4.25;4.25;;;;;;;;4987220;28;8890;-78
2022/06/05 00:16:55;;;;;;;;;5.00;5.00;;;;;;;;4979860;28;9653;-79
2022/06/05 00:19:22;;;;;;;;;6.25;6.25;;;;;;;;4982479;28;8862;-78
2022/06/05 00:21:49;;;;;;;;;6.25;6.25;;;;;;;;4986569;28;8858;-79
2022/06/05 00:24:17;;;;;;;;;5.00;5.00;;;;;;;;4985270;28;8862;-79
2022/06/05 00:26:51;;;;;;;;;15.00;12.50;;;;;;;;4984272;28;8858;-78
2022/06/05 00:29:35;;;;;;;;;15.25;15.25;;;;;;;;4985269;28;8886;-78
2022/06/05 00:32:11;;;;;;;;;13.00;13.00;;;;;;;;4971318;28;8835;-79
2022/06/05 00:34:38;;;;;;;;;13.00;13.00;;;;;;;;4985037;28;8892;-79
2022/06/05 00:37:17;;;;;;;;;16.00;14.75;;;;;;;;4984623;28;8872;-78
2022/06/05 00:39:50;;;;;;;;;13.75;13.75;;;;;;;;4982337;28;8896;-78
2022/06/05 00:42:20;;;;;;;;;15.00;12.75;;;;;;;;4982649;28;9008;-79
2022/06/05 00:44:49;;;;;;;;;13.33;13.33;;;;;;;;4987750;28;8876;-79
2022/06/05 00:47:21;;;;;;;;;16.25;15.75;;;;;;;;4986732;28;8916;-80
2022/06/05 00:49:51;;;;;;;;;13.25;13.25;;;;;;;;4983453;28;8868;-79
2022/06/05 00:52:21;;;;;;;;;13.00;13.00;;;;;;;;4984688;28;8882;-78
2022/06/05 00:54:49;;;;;;;;;14.00;14.00;;;;;;;;4984006;28;8870;-79
2022/06/05 00:57:17;;;;;;;;;14.25;14.25;;;;;;;;4981914;28;8854;-79
2022/06/05 00:59:46;;;;;;;;;14.25;13.00;;;;;;;;4969076;28;9706;-80
2022/06/05 01:02:14;;;;;;;;;10.75;10.75;;;;;;;;4979277;28;9607;-80
2022/06/05 01:04:46;;;;;;;;;14.50;14.00;;;;;;;;4984955;28;8874;-81
2022/06/05 01:07:14;;;;;;;;;14.25;14.25;;;;;;;;4978947;28;8873;-79
2022/06/05 01:09:43;;;;;;;;;17.75;15.00;;;;;;;;4983810;28;8886;-79
2022/06/05 01:12:18;;;;;;;;;17.00;15.00;;;;;;;;4985511;28;8926;-79
2022/06/05 01:14:56;;;;;;;;;14.75;14.75;;;;;;;;4984858;28;8955;-80
2022/06/05 01:17:29;;;;;;;;;13.50;12.50;;;;;;;;4988885;28;8923;-80
2022/06/05 01:20:06;;;;;;;;;17.50;15.50;;;;;;;;4982856;28;8875;-80
2022/06/05 01:23:03;;;;;;;;;13.50;13.50;;;;;;;;4983837;28;8920;-80
2022/06/05 01:26:05;;;;;;;;;15.00;15.00;;;;;;;;4965596;28;8920;-80
2022/06/05 01:28:34;;;;;;;;;12.00;12.00;;;;;;;;4955532;28;8881;-80
2022/06/05 01:31:10;;;;;;;;;9.50;8.75;;;;;;;;4971674;28;8827;-80
2022/06/05 01:33:43;;;;;;;;;13.00;12.00;;;;;;;;4984298;28;8905;-81
2022/06/05 01:36:15;;;;;;;;;11.75;11.25;;;;;;;;4982171;28;8878;-80
2022/06/05 01:38:47;;;;;;;;;11.00;10.00;;;;;;;;4981271;28;8918;-80
2022/06/05 01:41:21;;;;;;;;;8.00;8.00;;;;;;;;4959668;28;8887;-80
2022/06/05 01:43:51;;;;;;;;;11.75;10.50;;;;;;;;4987100;28;8866;-80
2022/06/05 01:46:22;;;;;;;;;11.00;11.00;;;;;;;;4983752;28;8881;-79
2022/06/05 01:48:55;;;;;;;;;13.75;13.75;;;;;;;;4980855;28;8855;-79
2022/06/05 01:51:27;;;;;;;;;13.00;13.00;;;;;;;;4983254;28;8859;-80
2022/06/05 01:53:55;;;;;;;;;9.25;9.25;;;;;;;;4966028;28;8887;-80
2022/06/05 01:56:27;;;;;;;;;13.50;11.50;;;;;;;;4967670;28;9658;-78
2022/06/05 01:58:56;;;;;;;;;14.00;13.00;;;;;;;;4981087;28;9607;-80
2022/06/05 02:01:25;;;;;;;;;12.00;11.25;;;;;;;;4983297;28;8840;-80
2022/06/05 02:03:57;;;;;;;;;13.50;11.50;;;;;;;;4984291;28;8970;-80
2022/06/05 02:06:29;;;;;;;;;11.00;11.00;;;;;;;;4982463;28;8922;-79
2022/06/05 02:09:03;;;;;;;;;15.50;13.75;;;;;;;;4983029;28;8990;-79
2022/06/05 02:11:34;;;;;;;;;10.25;10.25;;;;;;;;4980011;28;8921;-80
2022/06/05 02:14:04;;;;;;;;;13.25;13.25;;;;;;;;4976328;28;8900;-80
2022/06/05 02:16:32;;;;;;;;;9.50;9.50;;;;;;;;4980001;28;8932;-80
2022/06/05 02:19:02;;;;;;;;;16.25;13.50;;;;;;;;4982719;28;8870;-79
2022/06/05 02:21:30;;;;;;;;;12.25;10.75;;;;;;;;4982776;28;9035;-80
2022/06/05 02:23:58;;;;;;;;;9.50;9.50;;;;;;;;4977701;28;8886;-80
2022/06/05 02:26:28;;;;;;;;;10.75;10.75;;;;;;;;4981760;28;8866;-80
2022/06/05 02:28:57;;;;;;;;;9.50;9.50;;;;;;;;4980520;28;8867;-80
2022/06/05 02:31:31;;;;;;;;;9.75;9.75;;;;;;;;4982557;28;8824;-80
2022/06/05 02:34:07;;;;;;;;;10.00;10.00;;;;;;;;4981338;28;8866;-80
2022/06/05 02:36:52;;;;;;;;;10.25;8.75;;;;;;;;4960197;28;8909;-81
2022/06/05 02:39:30;;;;;;;;;8.25;8.25;;;;;;;;4977653;28;8889;-80
2022/06/05 02:42:02;;;;;;;;;7.50;7.50;;;;;;;;4977966;28;8876;-78
2022/06/05 02:44:38;;;;;;;;;12.75;12.75;;;;;;;;4982174;28;8886;-79
2022/06/05 02:47:29;;;;;;;;;11.25;11.25;;;;;;;;4981334;28;8886;-79
2022/06/05 02:50:02;;;;;;;;;9.00;7.75;;;;;;;;4975742;28;8983;-79
2022/06/05 02:52:32;;;;;;;;;8.00;8.00;;;;;;;;4981143;28;8876;-80
2022/06/05 02:55:04;;;;;;;;;10.50;10.50;;;;;;;;4979460;28;8865;-80
2022/06/05 02:57:31;;;;;;;;;9.00;9.00;;;;;;;;4982840;28;8870;-79
2022/06/05 03:00:00;;;;;;;;;10.25;10.25;;;;;;;;4986586;28;9241;-79
2022/06/05 03:05:12;;;;;;;;;11.25;10.25;;;;;;;;4979353;28;8815;-79
2022/06/05 03:07:40;;;;;;;;;11.25;10.00;;;;;;;;4981923;28;8891;-78
2022/06/05 03:10:08;;;;;;;;;11.75;9.50;;;;;;;;4978138;28;9619;-79
2022/06/05 03:12:35;;;;;;;;;10.75;9.75;;;;;;;;4981740;28;8886;-79
2022/06/05 03:15:06;;;;;;;;;14.25;11.25;;;;;;;;4982799;28;8884;-79
2022/06/05 03:17:33;;;;;;;;;11.50;11.50;;;;;;;;4965846;28;8874;-79
2022/06/05 03:20:00;;;;;;;;;12.75;12.75;;;;;;;;4982271;28;9735;-79
2022/06/05 03:22:29;;;;;;;;;14.50;14.50;;;;;;;;4980755;28;8971;-79
2022/06/05 03:24:56;;;;;;;;;12.25;12.25;;;;;;;;4965668;28;8866;-79
2022/06/05 03:27:23;;;;;;;;;16.00;15.00;;;;;;;;4980658;28;8916;-80
2022/06/05 03:29:52;;;;;;;;;16.50;14.75;;;;;;;;4980917;28;9633;-80
2022/06/05 03:32:20;;;;;;;;;11.25;11.25;;;;;;;;4978650;28;8803;-80
2022/06/05 03:34:47;;;;;;;;;8.25;6.00;;;;;;;;4980934;28;8870;-79
2022/06/05 03:37:15;;;;;;;;;15.25;15.00;;;;;;;;4982860;28;9009;-79
2022/06/05 03:39:42;;;;;;;;;16.25;16.25;;;;;;;;4965475;28;8851;-80
2022/06/05 03:42:10;;;;;;;;;14.25;14.25;;;;;;;;4979800;28;8906;-79
2022/06/05 03:44:37;;;;;;;;;17.50;15.00;;;;;;;;4979277;28;8842;-79
2022/06/05 03:47:05;;;;;;;;;13.75;13.75;;;;;;;;4983017;28;8893;-78
2022/06/05 03:49:35;;;;;;;;;2.25;2.25;;;;;;;;4984385;28;8883;-79
2022/06/05 03:52:03;;;;;;;;;10.00;10.00;;;;;;;;4983044;28;8906;-80
2022/06/05 03:54:30;;;;;;;;;10.50;10.50;;;;;;;;4966834;28;8862;-80
2022/06/05 03:56:57;;;;;;;;;13.25;13.25;;;;;;;;4981098;28;8859;-80
2022/06/05 03:59:25;;;;;;;;;15.50;14.75;;;;;;;;4994850;28;10969;-78
2022/06/05 04:01:52;;;;;;;;;8.00;8.00;;;;;;;;4982241;28;8823;-80
2022/06/05 04:04:20;;;;;;;;;14.25;11.75;;;;;;;;4983894;28;8904;-80
2022/06/05 04:06:49;;;;;;;;;14.00;14.00;;;;;;;;4965666;28;8988;-80
2022/06/05 04:09:16;;;;;;;;;13.75;12.25;;;;;;;;4985103;28;8878;-80
2022/06/05 04:11:44;;;;;;;;;13.25;13.25;;;;;;;;4968083;28;8924;-80
2022/06/05 04:14:11;;;;;;;;;13.50;13.50;;;;;;;;4984438;28;8892;-80
2022/06/05 04:16:41;;;;;;;;;15.00;13.25;;;;;;;;4988263;28;8877;-79
2022/06/05 04:19:08;;;;;;;;;15.25;14.00;;;;;;;;4982450;28;8858;-79
2022/06/05 04:21:38;;;;;;;;;13.25;12.50;;;;;;;;4987105;28;8890;-79
2022/06/05 04:24:07;;;;;;;;;11.25;11.25;;;;;;;;4977164;28;8871;-79
2022/06/05 04:26:36;;;;;;;;;14.50;11.75;;;;;;;;4985433;28;9045;-79
2022/06/05 04:29:03;;;;;;;;;4.00;2.25;;;;;;;;4984298;28;8891;-80
2022/06/05 04:31:32;;;;;;;;;15.00;15.00;;;;;;;;4979442;28;8815;-78
2022/06/05 04:34:01;;;;;;;;;8.00;8.00;;;;;;;;4985315;28;8900;-79
2022/06/05 04:36:29;;;;;;;;;12.50;12.50;;;;;;;;4980599;28;8878;-79
2022/06/05 04:38:57;;;;;;;;;10.00;10.00;;;;;;;;4985425;28;8896;-79
2022/06/05 04:41:26;;;;;;;;;12.50;9.75;;;;;;;;4967924;28;8883;-79
2022/06/05 04:43:54;;;;;;;;;14.50;13.25;;;;;;;;4981966;28;9015;-79
2022/06/05 04:46:23;;;;;;;;;12.00;11.25;;;;;;;;4981814;28;8901;-79
2022/06/05 04:48:51;;;;;;;;;12.25;10.75;;;;;;;;4983421;28;8866;-79
2022/06/05 04:51:19;;;;;;;;;12.75;10.25;;;;;;;;4984551;28;9005;-79
2022/06/05 04:53:48;;;;;;;;;12.67;10.00;;;;;;;;4984176;28;8867;-78
2022/06/05 04:56:19;;;;;;;;;11.50;11.50;;;;;;;;4980445;28;8882;-79
2022/06/05 04:58:48;;;;;;;;;13.25;11.00;;;;;;;;4980834;28;8978;-79
2022/06/05 05:01:18;;;;;;;;;15.50;15.50;;;;;;;;4983096;28;8809;-78
2022/06/05 05:03:45;;;;;;;;;17.25;14.25;;;;;;;;4983588;28;8874;-79
2022/06/05 05:06:13;;;;;;;;;14.00;13.25;;;;;;;;4979003;28;8866;-79
2022/06/05 05:08:41;;;;;;;;;15.25;15.25;;;;;;;;4984770;28;8858;-79
2022/06/05 05:11:09;;;;;;;;;12.75;12.75;;;;;;;;4984900;28;8881;-78
2022/06/05 05:13:37;;;;;;;;;14.25;14.25;;;;;;;;4948492;28;8957;-79
2022/06/05 05:16:06;;;;;;;;;12.00;11.50;;;;;;;;4983226;28;8857;-78
2022/06/05 05:18:33;;;;;;;;;11.00;11.00;;;;;;;;4982261;28;8912;-78
2022/06/05 05:21:06;;;;;;;;;16.25;13.00;;;;;;;;4967405;28;8908;-78
2022/06/05 05:23:33;;;;;;;;;10.75;10.75;;;;;;;;4982342;28;8862;-77
2022/06/05 05:26:08;;;;;;;;;13.00;12.75;;;;;;;;4984243;28;8878;-78
2022/06/05 05:28:36;;;;;;;;;14.25;14.25;;;;;;;;4983748;28;8870;-77
2022/06/05 05:31:07;;;;;;;;;15.75;15.25;;;;;;;;4979962;28;8857;-78
2022/06/05 05:33:34;;;;;;;;;14.25;14.25;;;;;;;;4983259;28;8906;-78
2022/06/05 05:36:01;;;;;;;;;10.75;10.75;;;;;;;;4982369;28;8921;-78
2022/06/05 05:38:29;;;;;;;;;13.50;10.50;;;;;;;;4979395;28;8865;-78
2022/06/05 05:43:41;;;;;;;;;18.25;18.25;;;;;;;;4969639;28;8846;-80
2022/06/05 05:46:11;;;;;;;;;19.00;17.25;;;;;;;;4978597;28;8858;-79
2022/06/05 05:48:38;;;;;;;;;18.00;16.50;;;;;;;;4982184;28;8863;-79
2022/06/05 05:51:11;;;;;;;;;17.25;17.25;;;;;;;;4984482;28;8871;-78
2022/06/05 05:53:39;;;;;;;;;15.25;15.25;;;;;;;;4980570;28;8882;-78
2022/06/05 05:56:10;;;;;;;;;22.50;20.75;;;;;;;;4981474;28;9644;-79
2022/06/05 05:58:37;;;;;;;;;15.00;15.00;;;;;;;;4985327;28;8867;-78
2022/06/05 06:01:06;;;;;;;;;17.00;15.25;;;;;;;;4984315;28;8813;-78
2022/06/05 06:03:35;;;;;;;;;16.50;15.25;;;;;;;;4981069;28;9656;-78
2022/06/05 06:06:03;;;;;;;;;14.00;13.25;;;;;;;;4982510;28;8859;-78
2022/06/05 06:08:31;;;;;;;;;12.25;12.25;;;;;;;;4965743;28;8932;-78
2022/06/05 06:10:58;;;;;;;;;13.25;13.25;;;;;;;;4981280;28;9637;-78
2022/06/05 06:13:26;;;;;;;;;10.50;10.50;;;;;;;;4982041;28;8878;-78
2022/06/05 06:15:54;;;;;;;;;16.00;13.50;;;;;;;;4964814;28;8855;-78
2022/06/05 06:18:21;;;;;;;;;9.50;9.50;;;;;;;;4982715;28;8859;-79
2022/06/05 06:20:50;;;;;;;;;14.00;13.25;;;;;;;;4978660;28;8989;-79
2022/06/05 06:23:18;;;;;;;;;10.00;8.50;;;;;;;;4974441;28;8888;-77
2022/06/05 06:25:46;;;;;;;;;11.50;9.75;;;;;;;;4964261;28;8870;-89
2022/06/05 06:28:13;;;;;;;;;9.50;8.00;;;;;;;;4979037;28;8920;-81
2022/06/05 06:30:41;;;;;;;;;7.75;6.00;;;;;;;;4965042;28;8810;-80
2022/06/05 06:33:14;;;;;;;;;10.00;10.00;;;;;;;;4987417;28;8980;-89
2022/06/05 06:35:42;;;;;;;;;11.25;10.00;;;;;;;;4987235;28;8866;-83
2022/06/05 06:38:11;;;;;;;;;14.75;11.50;;;;;;;;4982944;28;8851;-86
2022/06/05 06:40:38;;;;;;;;;11.50;9.75;;;;;;;;4979134;28;8953;-76
2022/06/05 06:43:06;;;;;;;;;10.00;10.00;;;;;;;;4980206;28;8847;-80
2022/06/05 06:45:34;;;;;;;;;8.00;8.00;;;;;;;;4974623;28;8973;-83
2022/06/05 06:48:01;;;;;;;;;10.50;9.00;;;;;;;;4978897;28;8916;-82
2022/06/05 06:50:29;;;;;;;;;10.50;10.50;;;;;;;;4979895;28;8874;-83
2022/06/05 06:52:56;;;;;;;;;8.00;8.00;;;;;;;;4981310;28;8863;-81
2022/06/05 06:55:25;;;;;;;;;11.00;10.75;;;;;;;;4979509;28;8953;-80
2022/06/05 06:57:53;;;;;;;;;9.00;9.00;;;;;;;;4980621;28;8851;-77
2022/06/05 07:00:21;;;;;;;;;9.25;9.25;;;;;;;;4981443;28;8853;-79
2022/06/05 07:02:48;;;;;;;;;9.25;9.25;;;;;;;;4981022;28;8863;-75
2022/06/05 07:05:15;;;;;;;;;13.00;10.00;;;;;;;;4981531;28;8878;-75
2022/06/05 07:07:42;;;;;;;;;8.00;8.00;;;;;;;;4975963;28;8945;-73
2022/06/05 07:10:10;;;;;;;;;9.00;9.00;;;;;;;;4981111;28;8892;-74
2022/06/05 07:12:39;;;;;;;;;9.25;9.25;;;;;;;;4979711;28;8969;-75
2022/06/05 07:15:08;;;;;;;;;10.00;10.00;;;;;;;;4977631;28;9609;-74
2022/06/05 07:17:35;;;;;;;;;15.00;11.50;;;;;;;;4981724;28;8892;-74
2022/06/05 07:20:03;;;;;;;;;10.20;10.20;;;;;;;;4980190;28;8894;-74
2022/06/05 07:22:30;;;;;;;;;11.80;11.80;;;;;;;;4982545;28;9075;-73
2022/06/05 07:24:57;;;;;;;;;11.75;11.75;;;;;;;;4980563;28;8877;-78
2022/06/05 07:27:25;;;;;;;;;12.80;12.80;;;;;;;;4977220;28;8878;-75
2022/06/05 07:29:54;;;;;;;;;11.60;11.60;;;;;;;;4981493;28;8878;-74
2022/06/05 07:32:21;;;;;;;;;13.25;11.25;;;;;;;;4978716;28;8843;-76
2022/06/05 07:34:49;;;;;;;;;14.20;11.60;;;;;;;;4976697;28;8855;-74
2022/06/05 07:37:17;;;;;;;;;12.25;12.25;;;;;;;;4978439;28;8888;-77
2022/06/05 07:39:45;;;;;;;;;13.40;13.40;;;;;;;;4978793;28;8858;-75
2022/06/05 07:42:13;;;;;;;;;13.00;13.00;;;;;;;;4979710;28;8970;-75
2022/06/05 07:44:40;;;;;;;;;13.40;12.60;;;;;;;;4977719;28;8894;-76
2022/06/05 07:47:10;;;;;;;;;13.50;13.50;;;;;;;;4978682;28;8884;-78
2022/06/05 07:49:40;;;;;;;;;10.50;9.75;;;;;;;;4981642;28;8989;-75
2022/06/05 07:54:52;;;;;;;;;13.00;12.50;;;;;;;;4980544;28;8835;-76
2022/06/05 07:57:20;;;;;;;;;14.00;11.25;;;;;;;;4981685;28;8866;-75
2022/06/05 07:59:48;;;;;;;;;13.50;12.00;;;;;;;;4981860;28;8862;-75
2022/06/05 08:02:19;;;;;;;;;12.75;12.00;;;;;;;;4982186;28;8819;-74
2022/06/05 08:04:47;;;;;;;;;11.00;11.00;;;;;;;;4981007;28;8866;-75
2022/06/05 08:07:16;;;;;;;;;10.25;10.25;;;;;;;;4985106;28;8909;-74
2022/06/05 08:09:44;;;;;;;;;11.00;9.75;;;;;;;;4981684;28;8854;-75
2022/06/05 08:12:14;;;;;;;;;9.00;9.00;;;;;;;;4981316;28;9036;-74
2022/06/05 08:14:43;;;;;;;;;11.25;11.25;;;;;;;;4982222;28;8878;-74
2022/06/05 08:17:16;;;;;;;;;10.00;10.00;;;;;;;;4978163;28;8859;-74
2022/06/05 08:19:46;;;;;;;;;12.75;11.00;;;;;;;;4982070;28;8872;-74
2022/06/05 08:22:16;;;;;;;;;10.50;8.25;;;;;;;;4980944;28;8869;-75
2022/06/05 08:24:44;;;;;;;;;12.00;11.75;;;;;;;;4982737;28;8889;-75
2022/06/05 08:27:14;;;;;;;;;13.80;9.80;;;;;;;;4981142;28;9005;-74
2022/06/05 08:29:43;;;;;;;;;11.00;11.00;;;;;;;;4962113;28;8977;-75
2022/06/05 08:32:13;;;;;;;;;9.60;9.60;;;;;;;;4984971;28;8826;-74
2022/06/05 08:34:41;;;;;;;;;9.50;7.75;;;;;;;;4981675;28;8882;-74
2022/06/05 08:42:53;;;;;;;;;12.60;9.80;;;;;;;;4966603;28;8970;-75
2022/06/05 08:45:26;;;;;;;;;8.60;7.40;;;;;;;;4984460;28;8896;-72
2022/06/05 08:47:56;;;;;;;;;9.00;9.00;;;;;;;;4982962;28;8932;-71
2022/06/05 08:50:30;;;;;;;;;8.00;8.00;;;;;;;;4971242;28;8873;-71
2022/06/05 08:53:03;;;;;;;;;8.40;8.40;;;;;;;;4981082;28;9044;-73
2022/06/05 08:55:33;;;;;;;;;8.40;8.40;;;;;;;;4960984;28;8977;-72
2022/06/05 08:58:04;;;;;;;;;9.00;9.00;;;;;;;;4983885;28;8874;-73
2022/06/05 09:00:36;;;;;;;;;9.20;9.20;;;;;;;;4982458;28;8782;-72
2022/06/05 09:03:08;;;;;;;;;10.40;10.40;;;;;;;;4983399;28;8883;-72
2022/06/05 09:05:38;;;;;;;;;11.80;10.00;;;;;;;;4981458;28;8871;-72
2022/06/05 09:08:12;;;;;;;;;8.80;8.80;;;;;;;;4983260;28;8870;-73
2022/06/05 09:10:41;;;;;;;;;8.00;8.00;;;;;;;;4982052;28;8859;-73
2022/06/05 09:13:11;;;;;;;;;7.00;7.00;;;;;;;;4982191;28;8862;-73
2022/06/05 09:15:43;;;;;;;;;5.20;5.20;;;;;;;;4982684;28;8851;-72
2022/06/05 09:18:15;;;;;;;;;9.20;9.00;;;;;;;;4977094;28;9652;-72
2022/06/05 09:20:49;;;;;;;;;5.60;5.60;;;;;;;;4982292;28;9708;-73
2022/06/05 09:23:23;;;;;;;;;9.00;9.00;;;;;;;;4980529;28;8894;-73
2022/06/05 09:25:57;;;;;;;;;8.40;8.40;;;;;;;;4976581;28;8874;-72
2022/06/05 09:28:39;;;;;;;;;9.00;7.40;;;;;;;;4983071;28;8859;-72
2022/06/05 09:31:26;;;;;;;;;7.60;7.00;;;;;;;;4989828;28;8785;-72
2022/06/05 09:33:55;;;;;;;;;8.60;8.40;;;;;;;;4982844;28;8866;-72
2022/06/05 09:36:25;;;;;;;;;6.00;6.00;;;;;;;;4978459;28;9726;-71
2022/06/05 09:38:58;;;;;;;;;8.20;8.20;;;;;;;;4983076;28;9716;-71
2022/06/05 09:41:33;;;;;;;;;6.40;6.40;;;;;;;;4979737;28;8868;-72
2022/06/05 09:44:18;;;;;;;;;6.20;6.20;;;;;;;;4984170;28;8899;-72
2022/06/05 09:46:55;;;;;;;;;5.00;5.00;;;;;;;;4982042;28;8838;-72
2022/06/05 09:49:27;;;;;;;;;5.80;5.80;;;;;;;;4980039;28;8866;-72
2022/06/05 09:51:54;;;;;;;;;8.00;8.00;;;;;;;;4980458;28;8878;-72
2022/06/05 09:54:28;;;;;;;;;8.60;8.60;;;;;;;;4957315;28;8904;-72
2022/06/05 09:59:56;;;;;;;;;8.60;7.40;;;;;;;;4983314;28;8839;-74
2022/06/05 10:02:24;;;;;;;;;8.40;8.40;;;;;;;;4981309;28;8830;-72
2022/06/05 10:04:52;;;;;;;;;7.00;7.00;;;;;;;;4981149;28;8940;-72
2022/06/05 10:07:24;;;;;;;;;11.80;8.40;;;;;;;;4962216;28;8898;-73
2022/06/05 10:09:53;;;;;;;;;8.40;8.40;;;;;;;;4980642;28;8873;-72
2022/06/05 10:12:24;;;;;;;;;10.00;8.80;;;;;;;;4980154;28;9646;-74
2022/06/05 10:14:57;;;;;;;;;7.00;7.00;;;;;;;;4981885;28;8879;-72
2022/06/05 10:17:44;;;;;;;;;9.60;8.40;;;;;;;;4981676;28;8867;-72
2022/06/05 10:20:47;;;;;;;;;7.20;7.00;;;;;;;;4980399;28;8872;-73
2022/06/05 10:23:38;;;;;;;;;7.60;7.60;;;;;;;;4983096;28;8885;-72
2022/06/05 10:26:17;;;;;;;;;10.20;10.20;;;;;;;;4984332;28;8897;-72
2022/06/05 10:28:46;;;;;;;;;9.80;8.40;;;;;;;;4982672;28;8835;-73
2022/06/05 10:31:15;;;;;;;;;35.75;30.25;;;;;;;;4984002;28;8869;-74
2022/06/05 10:33:52;;;;;;;;;15.80;15.00;;;;;;;;4977678;28;8859;-74
2022/06/05 10:36:22;;;;;;;;;15.20;11.00;;;;;;;;4966212;28;8945;-73
2022/06/05 10:38:55;;;;;;;;;11.80;11.80;;;;;;;;4983613;28;8886;-73
2022/06/05 10:41:28;;;;;;;;;23.20;19.60;;;;;;;;4980133;28;8847;-71
2022/06/05 10:44:17;;;;;;;;;9.40;9.40;;;;;;;;4982254;28;8874;-73
2022/06/05 10:47:02;;;;;;;;;12.00;10.20;;;;;;;;4974817;28;9685;-73
2022/06/05 10:49:34;;;;;;;;;10.80;10.80;;;;;;;;4980270;28;8854;-73
2022/06/05 10:52:14;;;;;;;;;10.00;10.00;;;;;;;;4965966;28;8858;-73
2022/06/05 10:54:48;;;;;;;;;10.60;10.20;;;;;;;;4981089;28;8965;-74
2022/06/05 10:57:20;;;;;;;;;12.40;10.20;;;;;;;;4981002;28;8866;-74
2022/06/05 10:59:54;;;;;;;;;10.00;10.00;;;;;;;;4982008;28;8862;-74
2022/06/05 11:02:36;;;;;;;;;10.40;10.40;;;;;;;;4961992;28;8836;-72
2022/06/05 11:05:17;;;;;;;;;11.60;11.60;;;;;;;;4979856;28;9732;-74
2022/06/05 11:07:54;;;;;;;;;11.20;10.80;;;;;;;;4977186;28;8856;-74
2022/06/05 11:16:29;;;;;;;;;9.00;9.00;;;;;;;;4964579;28;8846;-75
2022/06/05 11:19:09;;;;;;;;;9.00;9.00;;;;;;;;4980809;28;8874;-74
2022/06/05 11:21:38;;;;;;;;;12.80;11.00;;;;;;;;4980661;28;9330;-74
2022/06/05 11:24:12;;;;;;;;;13.20;11.80;;;;;;;;4975528;28;8964;-75
2022/06/05 11:26:52;;;;;;;;;14.60;13.60;;;;;;;;4980422;28;8858;-74
2022/06/05 11:29:26;;;;;;;;;11.00;11.00;;;;;;;;4980304;28;8855;-75
2022/06/05 11:32:24;;;;;;;;;13.80;11.00;;;;;;;;4979833;28;8874;-73
2022/06/05 11:34:59;;;;;;;;;10.60;10.60;;;;;;;;4962470;28;8850;-74
2022/06/05 11:37:40;;;;;;;;;11.20;11.00;;;;;;;;4980543;28;8881;-74
2022/06/05 11:40:18;;;;;;;;;11.80;10.00;;;;;;;;4977585;28;9683;-73
2022/06/05 11:42:50;;;;;;;;;9.20;9.20;;;;;;;;4979139;28;8862;-74
2022/06/05 11:45:40;;;;;;;;;10.00;10.00;;;;;;;;4981555;28;8894;-73
2022/06/05 11:48:12;;;;;;;;;9.00;9.00;;;;;;;;4982138;28;8842;-77
2022/06/05 11:50:46;;;;;;;;;7.80;7.00;;;;;;;;4981419;28;8846;-73
2022/06/05 11:53:22;;;;;;;;;8.00;8.00;;;;;;;;4982310;28;8869;-72
2022/06/05 11:55:56;;;;;;;;;8.60;8.60;;;;;;;;4964412;28;8910;-73
2022/06/05 11:58:29;;;;;;;;;7.00;7.00;;;;;;;;4980044;28;8881;-73
2022/06/05 12:01:03;;;;;;;;;8.20;7.00;;;;;;;;4965391;28;8825;-73
2022/06/05 12:03:35;;;;;;;;;9.40;8.60;;;;;;;;4979430;28;8877;-72
2022/06/05 12:06:08;;;;;;;;;10.20;8.20;;;;;;;;4983705;28;8854;-72
2022/06/05 12:08:42;;;;;;;;;11.80;10.00;;;;;;;;4984946;28;8843;-73
2022/06/05 12:11:13;;;;;;;;;12.00;12.00;;;;;;;;4985281;28;8863;-73
2022/06/05 12:13:50;;;;;;;;;11.00;11.00;;;;;;;;4982015;28;8854;-72
2022/06/05 12:16:23;;;;;;;;;12.80;12.60;;;;;;;;4979822;28;8918;-72
2022/06/05 12:18:53;;;;;;;;;9.60;9.60;;;;;;;;4986196;28;8846;-71
2022/06/05 12:21:24;;;;;;;;;11.20;10.40;;;;;;;;4964726;28;8858;-71
2022/06/05 12:23:59;;;;;;;;;12.20;12.20;;;;;;;;4984876;28;8897;-74
2022/06/05 12:26:34;;;;;;;;;18.60;17.40;;;;;;;;4961934;28;8906;-73
2022/06/05 12:29:07;;;;;;;;;14.20;14.20;;;;;;;;4981005;28;8898;-72
2022/06/05 12:31:40;;;;;;;;;17.20;17.20;;;;;;;;4986278;28;8809;-71
2022/06/05 12:34:14;;;;;;;;;19.80;18.40;;;;;;;;4983720;28;8862;-71
2022/06/05 12:36:43;;;;;;;;;20.20;18.20;;;;;;;;4984329;28;8866;-71
2022/06/05 12:39:17;;;;;;;;;20.80;19.80;;;;;;;;4980784;28;8883;-71
2022/06/05 12:41:48;;;;;;;;;21.00;21.00;;;;;;;;4983930;28;8997;-73
2022/06/05 12:44:23;;;;;;;;;22.80;21.40;;;;;;;;4985654;28;8875;-71
2022/06/05 12:46:58;;;;;;;;;25.20;25.00;;;;;;;;4979755;28;8870;-71
2022/06/05 12:49:30;;;;;;;;;25.20;23.60;;;;;;;;4984948;28;8885;-71
2022/06/05 12:52:21;;;;;;;;;31.60;30.00;;;;;;;;4983709;28;8876;-72
2022/06/05 12:54:53;;;;;;;;;25.60;25.20;;;;;;;;4984605;28;8898;-72
2022/06/05 12:57:24;;;;;;;;;30.20;28.60;;;;;;;;4982774;28;8846;-70
2022/06/05 12:59:57;;;;;;;;;27.40;26.20;;;;;;;;4965591;28;8985;-71
2022/06/05 13:02:31;;;;;;;;;31.40;26.40;;;;;;;;4982471;28;8821;-71
2022/06/05 13:05:03;;;;;;;;;21.60;21.60;;;;;;;;4981394;28;8880;-72
2022/06/05 13:07:39;;;;;;;;;25.40;23.20;;;;;;;;4983462;28;9689;-72
2022/06/05 13:10:21;;;;;;;;;22.00;20.60;;;;;;;;4982536;28;8875;-72
2022/06/05 13:12:53;;;;;;;;;20.60;20.00;;;;;;;;4981238;28;8951;-72
2022/06/05 13:15:31;;;;;;;;;27.00;27.00;;;;;;;;4978563;28;8976;-72
2022/06/05 13:18:06;;;;;;;;;25.60;20.80;;;;;;;;4980645;28;9656;-72
2022/06/05 13:20:39;;;;;;;;;28.00;24.60;;;;;;;;4981641;28;9645;-71
2022/06/05 13:23:19;;;;;;;;;24.60;20.20;;;;;;;;4985169;28;8889;-72
2022/06/05 13:26:01;;;;;;;;;18.80;17.40;;;;;;;;4981782;28;8858;-72
2022/06/05 13:28:44;;;;;;;;;18.20;18.20;;;;;;;;4983615;28;8883;-74
2022/06/05 13:31:28;;;;;;;;;22.40;20.20;;;;;;;;4979068;28;8957;-72
2022/06/05 13:34:05;;;;;;;;;23.60;22.60;;;;;;;;4981040;28;8902;-73
2022/06/05 13:36:39;;;;;;;;;22.40;21.20;;;;;;;;4981957;28;8880;-73
2022/06/05 13:39:14;;;;;;;;;26.80;25.00;;;;;;;;4981620;28;8858;-72
2022/06/05 13:41:47;;;;;;;;;23.80;23.80;;;;;;;;4981601;28;8902;-72
2022/06/05 13:44:20;;;;;;;;;27.00;23.80;;;;;;;;4979643;28;8866;-71
2022/06/05 13:46:59;;;;;;;;;36.80;32.80;;;;;;;;4981020;28;8875;-70
2022/06/05 13:49:36;;;;;;;;;32.40;28.40;;;;;;;;4981987;28;8986;-70
2022/06/05 13:52:14;;;;;;;;;38.20;31.00;;;;;;;;4980178;28;8914;-70
2022/06/05 13:54:48;;;;;;;;;33.40;28.60;;;;;;;;4981368;28;8881;-70
2022/06/05 13:57:20;;;;;;;;;40.00;35.00;;;;;;;;4981454;28;8874;-69
2022/06/05 13:59:50;;;;;;;;;37.25;33.25;;;;;;;;4964295;28;8921;-71
2022/06/05 14:02:31;;;;;;;;;41.00;33.20;;;;;;;;4982398;28;8942;-72
2022/06/05 14:05:04;;;;;;;;;36.50;33.25;;;;;;;;4979224;28;8939;-72
2022/06/05 14:07:35;;;;;;;;;36.20;32.60;;;;;;;;4983348;28;8870;-70
2022/06/05 14:10:21;;;;;;;;;36.75;31.50;;;;;;;;4979239;28;8869;-71
2022/06/05 14:12:58;;;;;;;;;45.40;31.80;;;;;;;;4982099;28;8865;-71
2022/06/05 14:15:28;;;;;;;;;31.80;26.80;;;;;;;;4975200;28;8976;-71
2022/06/05 14:17:58;;;;;;;;;29.60;29.60;;;;;;;;4980542;28;10311;-71
2022/06/05 14:20:32;;;;;;;;;31.60;30.20;;;;;;;;4984939;28;8919;-72
2022/06/05 14:23:01;;;;;;;;;31.40;28.20;;;;;;;;4962894;28;8989;-71
2022/06/05 14:25:36;;;;;;;;;30.20;28.20;;;;;;;;4983683;28;8870;-71
2022/06/05 14:28:06;;;;;;;;;33.40;29.60;;;;;;;;4982374;28;8896;-71
2022/06/05 14:30:35;;;;;;;;;35.40;31.80;;;;;;;;4979211;28;8783;-73
2022/06/05 14:33:05;;;;;;;;;26.60;23.60;;;;;;;;4981323;28;8851;-73
2022/06/05 14:35:37;;;;;;;;;35.40;31.20;;;;;;;;4981886;28;9636;-73
2022/06/05 14:38:16;;;;;;;;;26.20;24.20;;;;;;;;4982558;28;8932;-73
2022/06/05 14:40:53;;;;;;;;;32.00;30.00;;;;;;;;4960024;28;8839;-73
2022/06/05 14:43:25;;;;;;;;;27.40;27.40;;;;;;;;4978124;28;8866;-73
2022/06/05 14:45:57;;;;;;;;;28.80;28.40;;;;;;;;4967085;28;8843;-74
2022/06/05 14:48:29;;;;;;;;;28.80;24.80;;;;;;;;4984740;28;9658;-77
2022/06/05 14:51:06;;;;;;;;;31.40;29.60;;;;;;;;4980147;28;8964;-73
2022/06/05 14:53:45;;;;;;;;;27.80;27.80;;;;;;;;4978875;28;8875;-74
2022/06/05 14:59:09;;;;;;;;;35.20;31.00;;;;;;;;4979280;28;8810;-74
2022/06/05 15:01:43;;;;;;;;;23.80;23.80;;;;;;;;4980249;28;8937;-73
2022/06/05 15:04:18;;;;;;;;;20.80;19.40;;;;;;;;4982704;28;8998;-72
2022/06/05 15:06:55;;;;;;;;;35.20;30.20;;;;;;;;4980840;28;8855;-73
2022/06/05 15:09:26;;;;;;;;;38.75;33.75;;;;;;;;4982389;28;8947;-73
2022/06/05 15:11:57;;;;;;;;;37.75;33.50;;;;;;;;4982159;28;8915;-72
2022/06/05 15:14:29;;;;;;;;;45.50;35.00;;;;;;;;4982342;28;8854;-73
2022/06/05 15:17:08;;;;;;;;;37.00;32.25;;;;;;;;4984341;28;8868;-73
2022/06/05 15:19:37;;;;;;;;;40.00;34.00;;;;;;;;4982444;28;9560;-73
2022/06/05 15:22:19;;;;;;;;;35.75;31.75;;;;;;;;4965990;28;8889;-73
2022/06/05 15:24:51;;;;;;;;;33.00;30.50;;;;;;;;4981401;28;8876;-73
2022/06/05 15:27:28;;;;;;;;;36.75;30.50;;;;;;;;4981809;28;8956;-73
2022/06/05 15:29:59;;;;;;;;;36.25;30.00;;;;;;;;4981602;28;8851;-73